Estación Meteorológica Peña el Pijo (Robertgarden) [ 08/22/19 15:54:14 CEST ]

Fecha Hora Presion(HPa) Temp (°C) Humedad % Rocio (°C) Viento ( m/s) Direccion Lluvia 1Hora(mm) Lluvia 24H(mm) LLuvia Total(mm)
2019-Feb-14 01:01:38 1018.700 -0.4 76 -4.1         183.37
2019-Feb-14 02:01:45 1018.600 -0.6 77 -4.1         183.37
2019-Feb-14 03:05:10 1018.600 -1.0 79 -4.2         183.37
2019-Feb-14 04:01:46 1018.800 -1.4 80 -4.4         183.37
2019-Feb-14 05:01:46 1018.800 -0.5 81 -3.3         183.37
2019-Feb-14 06:01:45 1018.900 0.1 82 -2.6         183.37
2019-Feb-14 07:01:36 1018.900 0.5 83 -2.1         183.37
2019-Feb-14 08:01:48 1019.200 0.7 84 -1.7         183.37
2019-Feb-14 09:02:05 1019.700 0.3 84 -2.1         183.37
2019-Feb-14 10:01:37 1020.000 1.2 84 -1.3         183.37
2019-Feb-14 11:01:56 1019.800 6.5 80 3.3         183.37
2019-Feb-14 12:01:59 1019.300 9.8 61 2.6         183.37
2019-Feb-14 13:01:46 1018.200 11.8 53 2.5         183.37
2019-Feb-14 14:01:47 1017.400 12.7 49 2.2         183.37
2019-Feb-14 15:02:06 1016.700 13.9 47 2.7 2.3 NNE     183.37
2019-Feb-14 16:01:51 1016.400 14.1 46 2.6 1.2 ENE     183.37
2019-Feb-14 17:01:48 1016.500 13.0 49 2.5         183.37
2019-Feb-14 18:01:53 1016.500 10.9 55 2.2         183.37
2019-Feb-14 19:01:42 1016.900 8.1 64 1.7         183.37
2019-Feb-14 20:01:50 1017.200 5.2 69 -0.0         183.37
2019-Feb-14 21:01:42 1017.300 2.9 73 -1.5         183.37
2019-Feb-14 22:01:48 1017.800 1.4 77 -2.2         183.37
2019-Feb-14 23:01:50 1017.700 1.2 79 -2.1         183.37

Temperatura Máxima:14°    Temperatura Mínima:-1°
Presión Máxima:1020.000 Hpa    Presión Mínima:1016.400 Hpa


Volver